sensor_id;sensor_type;location;lat;lon;timestamp;P1;durP1;ratioP1;P2;durP2;ratioP2
58101;SDS011;52034;51.926;6.320;2024-02-21T13:08:27;15.27;;;8.18;;
58101;SDS011;52034;51.926;6.320;2024-02-21T13:10:30;15.82;;;8.30;;
58101;SDS011;52034;51.926;6.320;2024-02-21T13:12:34;12.95;;;8.30;;
58101;SDS011;52034;51.926;6.320;2024-02-21T13:14:37;14.43;;;8.32;;
58101;SDS011;52034;51.926;6.320;2024-02-21T13:15:40;15.43;;;8.75;;
58101;SDS011;52034;51.926;6.320;2024-02-21T13:16:44;12.65;;;7.55;;
58101;SDS011;52034;51.926;6.320;2024-02-21T13:18:47;12.30;;;7.82;;
58101;SDS011;52034;51.926;6.320;2024-02-21T13:19:49;13.77;;;8.15;;
58101;SDS011;52034;51.926;6.320;2024-02-21T13:21:53;16.05;;;8.10;;
58101;SDS011;52034;51.926;6.320;2024-02-21T13:22:55;13.50;;;8.18;;
58101;SDS011;52034;51.926;6.320;2024-02-21T13:24:58;14.93;;;7.85;;
58101;SDS011;52034;51.926;6.320;2024-02-21T13:27:02;14.80;;;7.80;;
58101;SDS011;52034;51.926;6.320;2024-02-21T13:28:05;12.73;;;8.43;;
58101;SDS011;52034;51.926;6.320;2024-02-21T13:29:06;13.65;;;7.97;;
58101;SDS011;52034;51.926;6.320;2024-02-21T13:30:09;16.13;;;8.05;;
58101;SDS011;52034;51.926;6.320;2024-02-21T13:31:11;19.88;;;7.88;;
58101;SDS011;52034;51.926;6.320;2024-02-21T13:32:12;14.52;;;7.72;;
58101;SDS011;52034;51.926;6.320;2024-02-21T13:33:16;20.67;;;7.68;;
58101;SDS011;52034;51.926;6.320;2024-02-21T13:34:19;12.48;;;7.63;;
58101;SDS011;52034;51.926;6.320;2024-02-21T13:35:21;16.90;;;7.93;;
58101;SDS011;52034;51.926;6.320;2024-02-21T13:36:22;13.82;;;7.60;;
58101;SDS011;52034;51.926;6.320;2024-02-21T13:37:25;11.43;;;7.82;;
58101;SDS011;52034;51.926;6.320;2024-02-21T13:38:28;16.65;;;7.63;;
58101;SDS011;52034;51.926;6.320;2024-02-21T13:40:31;13.98;;;7.90;;
58101;SDS011;52034;51.926;6.320;2024-02-21T13:41:33;14.82;;;8.23;;
58101;SDS011;52034;51.926;6.320;2024-02-21T13:42:39;18.13;;;8.15;;
58101;SDS011;52034;51.926;6.320;2024-02-21T13:43:41;14.73;;;7.60;;
58101;SDS011;52034;51.926;6.320;2024-02-21T13:44:43;15.48;;;7.63;;
58101;SDS011;52034;51.926;6.320;2024-02-21T13:47:00;14.88;;;7.70;;
58101;SDS011;52034;51.926;6.320;2024-02-21T13:48:02;19.35;;;8.48;;
58101;SDS011;52034;51.926;6.320;2024-02-21T13:49:05;13.02;;;8.02;;
58101;SDS011;52034;51.926;6.320;2024-02-21T13:50:10;15.02;;;7.95;;
58101;SDS011;52034;51.926;6.320;2024-02-21T13:51:12;16.58;;;7.68;;
58101;SDS011;52034;51.926;6.320;2024-02-21T13:53:16;14.45;;;8.00;;
58101;SDS011;52034;51.926;6.320;2024-02-21T13:54:19;13.15;;;7.63;;
58101;SDS011;52034;51.926;6.320;2024-02-21T13:55:22;11.77;;;7.40;;
58101;SDS011;52034;51.926;6.320;2024-02-21T13:56:27;14.10;;;7.57;;
58101;SDS011;52034;51.926;6.320;2024-02-21T13:58:30;15.50;;;7.63;;
58101;SDS011;52034;51.926;6.320;2024-02-21T14:00:35;12.18;;;7.25;;
58101;SDS011;52034;51.926;6.320;2024-02-21T14:01:37;13.75;;;7.90;;
58101;SDS011;52034;51.926;6.320;2024-02-21T14:02:39;11.80;;;7.90;;
58101;SDS011;52034;51.926;6.320;2024-02-21T14:04:43;12.80;;;7.25;;
58101;SDS011;52034;51.926;6.320;2024-02-21T14:05:44;14.45;;;7.47;;
58101;SDS011;52034;51.926;6.320;2024-02-21T14:07:48;14.88;;;7.00;;
58101;SDS011;52034;51.926;6.320;2024-02-21T14:08:51;12.82;;;7.25;;
58101;SDS011;52034;51.926;6.320;2024-02-21T14:09:53;12.85;;;7.43;;
58101;SDS011;52034;51.926;6.320;2024-02-21T14:10:55;16.05;;;8.27;;
58101;SDS011;52034;51.926;6.320;2024-02-21T14:11:57;14.82;;;7.07;;
58101;SDS011;52034;51.926;6.320;2024-02-21T14:13:00;16.45;;;7.85;;
58101;SDS011;52034;51.926;6.320;2024-02-21T14:14:02;12.77;;;7.15;;
58101;SDS011;52034;51.926;6.320;2024-02-21T14:15:04;15.73;;;7.40;;
58101;SDS011;52034;51.926;6.320;2024-02-21T14:16:10;14.02;;;8.32;;
58101;SDS011;52034;51.926;6.320;2024-02-21T14:17:14;17.65;;;8.05;;
58101;SDS011;52034;51.926;6.320;2024-02-21T14:19:18;13.20;;;7.33;;
58101;SDS011;52034;51.926;6.320;2024-02-21T14:20:20;16.52;;;7.80;;
58101;SDS011;52034;51.926;6.320;2024-02-21T14:22:24;12.77;;;7.43;;
58101;SDS011;52034;51.926;6.320;2024-02-21T14:23:25;16.08;;;8.18;;
58101;SDS011;52034;51.926;6.320;2024-02-21T14:24:27;14.50;;;7.35;;
58101;SDS011;52034;51.926;6.320;2024-02-21T14:25:29;13.30;;;7.03;;
58101;SDS011;52034;51.926;6.320;2024-02-21T14:26:31;12.15;;;7.22;;
58101;SDS011;52034;51.926;6.320;2024-02-21T14:28:34;13.30;;;7.68;;
58101;SDS011;52034;51.926;6.320;2024-02-21T14:30:39;12.20;;;6.97;;
58101;SDS011;52034;51.926;6.320;2024-02-21T14:31:40;12.00;;;7.15;;
58101;SDS011;52034;51.926;6.320;2024-02-21T14:32:43;16.48;;;7.55;;
58101;SDS011;52034;51.926;6.320;2024-02-21T14:33:45;12.18;;;6.75;;
58101;SDS011;52034;51.926;6.320;2024-02-21T14:34:48;10.20;;;7.30;;
58101;SDS011;52034;51.926;6.320;2024-02-21T14:35:50;12.82;;;6.68;;
58101;SDS011;52034;51.926;6.320;2024-02-21T14:36:52;12.13;;;6.93;;
58101;SDS011;52034;51.926;6.320;2024-02-21T14:38:58;14.63;;;7.63;;
58101;SDS011;52034;51.926;6.320;2024-02-21T14:40:00;10.90;;;7.47;;
58101;SDS011;52034;51.926;6.320;2024-02-21T14:41:02;12.68;;;7.10;;
58101;SDS011;52034;51.926;6.320;2024-02-21T14:42:04;14.00;;;7.22;;
58101;SDS011;52034;51.926;6.320;2024-02-21T14:43:06;10.40;;;7.38;;
58101;SDS011;52034;51.926;6.320;2024-02-21T14:44:07;15.25;;;7.05;;
58101;SDS011;52034;51.926;6.320;2024-02-21T14:45:11;12.15;;;6.88;;
58101;SDS011;52034;51.926;6.320;2024-02-21T14:47:14;13.32;;;6.57;;
58101;SDS011;52034;51.926;6.320;2024-02-21T14:49:18;13.10;;;7.03;;
58101;SDS011;52034;51.926;6.320;2024-02-21T14:50:22;11.55;;;7.10;;
58101;SDS011;52034;51.926;6.320;2024-02-21T14:51:25;12.50;;;6.47;;
58101;SDS011;52034;51.926;6.320;2024-02-21T14:53:31;17.85;;;7.60;;
58101;SDS011;52034;51.926;6.320;2024-02-21T14:54:33;12.85;;;6.85;;
58101;SDS011;52034;51.926;6.320;2024-02-21T14:55:35;11.98;;;6.45;;
58101;SDS011;52034;51.926;6.320;2024-02-21T14:56:37;11.98;;;6.68;;
58101;SDS011;52034;51.926;6.320;2024-02-21T14:57:40;10.75;;;6.72;;
58101;SDS011;52034;51.926;6.320;2024-02-21T14:58:43;13.18;;;6.47;;
58101;SDS011;52034;51.926;6.320;2024-02-21T14:59:46;12.48;;;6.82;;
58101;SDS011;52034;51.926;6.320;2024-02-21T15:00:48;12.05;;;6.53;;
58101;SDS011;52034;51.926;6.320;2024-02-21T15:01:50;11.23;;;6.80;;
58101;SDS011;52034;51.926;6.320;2024-02-21T15:03:53;10.53;;;5.93;;
58101;SDS011;52034;51.926;6.320;2024-02-21T15:05:57;11.98;;;6.70;;
58101;SDS011;52034;51.926;6.320;2024-02-21T15:08:01;12.05;;;6.88;;
58101;SDS011;52034;51.926;6.320;2024-02-21T15:09:03;12.25;;;6.90;;
58101;SDS011;52034;51.926;6.320;2024-02-21T15:10:07;14.50;;;6.93;;
58101;SDS011;52034;51.926;6.320;2024-02-21T15:11:09;10.32;;;6.65;;
58101;SDS011;52034;51.926;6.320;2024-02-21T15:12:11;13.90;;;6.90;;
58101;SDS011;52034;51.926;6.320;2024-02-21T15:14:15;8.32;;;6.32;;
58101;SDS011;52034;51.926;6.320;2024-02-21T15:15:17;15.13;;;6.72;;
58101;SDS011;52034;51.926;6.320;2024-02-21T15:17:20;10.27;;;6.60;;
58101;SDS011;52034;51.926;6.320;2024-02-21T15:19:24;11.45;;;6.28;;
58101;SDS011;52034;51.926;6.320;2024-02-21T15:21:29;12.15;;;6.60;;
58101;SDS011;52034;51.926;6.320;2024-02-21T15:22:31;12.98;;;6.78;;
58101;SDS011;52034;51.926;6.320;2024-02-21T15:24:35;11.93;;;7.28;;
58101;SDS011;52034;51.926;6.320;2024-02-21T15:26:38;10.63;;;6.67;;
58101;SDS011;52034;51.926;6.320;2024-02-21T15:28:44;13.18;;;7.20;;
58101;SDS011;52034;51.926;6.320;2024-02-21T15:29:46;11.73;;;6.47;;
58101;SDS011;52034;51.926;6.320;2024-02-21T15:30:47;9.82;;;6.53;;
58101;SDS011;52034;51.926;6.320;2024-02-21T15:31:49;11.95;;;6.72;;
58101;SDS011;52034;51.926;6.320;2024-02-21T15:32:51;9.73;;;6.55;;
58101;SDS011;52034;51.926;6.320;2024-02-21T15:33:54;11.82;;;6.35;;
58101;SDS011;52034;51.926;6.320;2024-02-21T15:34:56;13.13;;;6.72;;
58101;SDS011;52034;51.926;6.320;2024-02-21T15:35:58;10.65;;;6.60;;
58101;SDS011;52034;51.926;6.320;2024-02-21T15:37:00;11.88;;;6.80;;
58101;SDS011;52034;51.926;6.320;2024-02-21T15:38:02;11.73;;;6.35;;
58101;SDS011;52034;51.926;6.320;2024-02-21T15:39:04;11.02;;;6.20;;
58101;SDS011;52034;51.926;6.320;2024-02-21T15:41:11;11.25;;;6.90;;
58101;SDS011;52034;51.926;6.320;2024-02-21T15:42:15;11.13;;;6.30;;
58101;SDS011;52034;51.926;6.320;2024-02-21T15:43:17;10.80;;;6.47;;
58101;SDS011;52034;51.926;6.320;2024-02-21T15:44:18;9.45;;;6.38;;
58101;SDS011;52034;51.926;6.320;2024-02-21T15:45:22;14.02;;;6.43;;
58101;SDS011;52034;51.926;6.320;2024-02-21T15:46:24;14.20;;;6.55;;
58101;SDS011;52034;51.926;6.320;2024-02-21T15:47:27;13.52;;;6.45;;
58101;SDS011;52034;51.926;6.320;2024-02-21T15:48:35;9.43;;;6.05;;
58101;SDS011;52034;51.926;6.320;2024-02-21T15:49:37;11.45;;;6.70;;
58101;SDS011;52034;51.926;6.320;2024-02-21T15:50:39;11.20;;;6.60;;
58101;SDS011;52034;51.926;6.320;2024-02-21T15:51:51;10.00;;;6.90;;
58101;SDS011;52034;51.926;6.320;2024-02-21T15:52:52;9.73;;;6.32;;
58101;SDS011;52034;51.926;6.320;2024-02-21T15:53:54;13.50;;;6.38;;
58101;SDS011;52034;51.926;6.320;2024-02-21T15:54:56;11.30;;;6.35;;
58101;SDS011;52034;51.926;6.320;2024-02-21T15:55:58;7.88;;;6.15;;
58101;SDS011;52034;51.926;6.320;2024-02-21T15:57:00;9.02;;;6.13;;
58101;SDS011;52034;51.926;6.320;2024-02-21T15:58:07;9.77;;;6.60;;
58101;SDS011;52034;51.926;6.320;2024-02-21T16:00:12;12.95;;;6.35;;
58101;SDS011;52034;51.926;6.320;2024-02-21T16:01:14;9.95;;;6.03;;
58101;SDS011;52034;51.926;6.320;2024-02-21T16:02:16;10.45;;;6.80;;
58101;SDS011;52034;51.926;6.320;2024-02-21T16:03:18;11.30;;;6.32;;
58101;SDS011;52034;51.926;6.320;2024-02-21T16:04:20;10.05;;;6.30;;
58101;SDS011;52034;51.926;6.320;2024-02-21T16:05:24;9.13;;;5.90;;
58101;SDS011;52034;51.926;6.320;2024-02-21T16:06:26;11.10;;;6.20;;
58101;SDS011;52034;51.926;6.320;2024-02-21T16:07:31;10.55;;;5.93;;
58101;SDS011;52034;51.926;6.320;2024-02-21T16:08:33;10.65;;;6.32;;
58101;SDS011;52034;51.926;6.320;2024-02-21T16:09:38;9.43;;;6.00;;
58101;SDS011;52034;51.926;6.320;2024-02-21T16:10:39;10.13;;;6.25;;
58101;SDS011;52034;51.926;6.320;2024-02-21T16:11:41;11.50;;;6.25;;
58101;SDS011;52034;51.926;6.320;2024-02-21T16:12:43;14.57;;;5.88;;
58101;SDS011;52034;51.926;6.320;2024-02-21T16:13:45;8.63;;;5.63;;
58101;SDS011;52034;51.926;6.320;2024-02-21T16:14:49;9.75;;;5.55;;
58101;SDS011;52034;51.926;6.320;2024-02-21T16:15:51;10.38;;;5.93;;
58101;SDS011;52034;51.926;6.320;2024-02-21T16:16:53;10.63;;;5.75;;
58101;SDS011;52034;51.926;6.320;2024-02-21T16:17:58;9.52;;;6.18;;
58101;SDS011;52034;51.926;6.320;2024-02-21T16:20:03;11.50;;;6.10;;
58101;SDS011;52034;51.926;6.320;2024-02-21T16:21:05;11.80;;;6.10;;
58101;SDS011;52034;51.926;6.320;2024-02-21T16:22:07;10.70;;;6.15;;
58101;SDS011;52034;51.926;6.320;2024-02-21T16:23:10;10.10;;;6.07;;
58101;SDS011;52034;51.926;6.320;2024-02-21T16:24:11;13.35;;;6.63;;
58101;SDS011;52034;51.926;6.320;2024-02-21T16:25:13;11.52;;;6.50;;
58101;SDS011;52034;51.926;6.320;2024-02-21T16:27:17;9.38;;;6.22;;
58101;SDS011;52034;51.926;6.320;2024-02-21T16:28:18;12.80;;;6.47;;
58101;SDS011;52034;51.926;6.320;2024-02-21T16:30:24;7.88;;;6.13;;
58101;SDS011;52034;51.926;6.320;2024-02-21T16:32:27;9.48;;;6.05;;
58101;SDS011;52034;51.926;6.320;2024-02-21T16:34:31;9.32;;;5.90;;
58101;SDS011;52034;51.926;6.320;2024-02-21T16:35:33;9.85;;;6.00;;
58101;SDS011;52034;51.926;6.320;2024-02-21T16:37:36;12.70;;;6.40;;
58101;SDS011;52034;51.926;6.320;2024-02-21T16:38:39;12.27;;;6.22;;
58101;SDS011;52034;51.926;6.320;2024-02-21T16:39:42;11.70;;;6.50;;
58101;SDS011;52034;51.926;6.320;2024-02-21T16:40:44;10.25;;;6.18;;
58101;SDS011;52034;51.926;6.320;2024-02-21T16:41:46;11.75;;;5.95;;
58101;SDS011;52034;51.926;6.320;2024-02-21T16:42:50;8.77;;;6.28;;
58101;SDS011;52034;51.926;6.320;2024-02-21T16:44:54;10.50;;;6.43;;
58101;SDS011;52034;51.926;6.320;2024-02-21T16:46:57;9.35;;;6.30;;
58101;SDS011;52034;51.926;6.320;2024-02-21T16:47:59;15.80;;;7.22;;
58101;SDS011;52034;51.926;6.320;2024-02-21T16:49:01;12.00;;;6.95;;
58101;SDS011;52034;51.926;6.320;2024-02-21T16:51:06;18.92;;;7.85;;
58101;SDS011;52034;51.926;6.320;2024-02-21T16:52:08;13.65;;;7.65;;
58101;SDS011;52034;51.926;6.320;2024-02-21T16:54:12;18.13;;;9.25;;
58101;SDS011;52034;51.926;6.320;2024-02-21T16:55:14;16.50;;;9.35;;
58101;SDS011;52034;51.926;6.320;2024-02-21T16:56:17;17.95;;;9.68;;
58101;SDS011;52034;51.926;6.320;2024-02-21T16:57:20;18.67;;;10.18;;
58101;SDS011;52034;51.926;6.320;2024-02-21T16:58:22;20.52;;;10.50;;
58101;SDS011;52034;51.926;6.320;2024-02-21T16:59:23;20.27;;;10.32;;
58101;SDS011;52034;51.926;6.320;2024-02-21T17:00:25;19.35;;;11.48;;
58101;SDS011;52034;51.926;6.320;2024-02-21T17:01:27;21.60;;;11.02;;
58101;SDS011;52034;51.926;6.320;2024-02-21T17:02:29;25.58;;;11.23;;
58101;SDS011;52034;51.926;6.320;2024-02-21T17:03:34;21.80;;;11.07;;
58101;SDS011;52034;51.926;6.320;2024-02-21T17:04:37;15.00;;;8.75;;
58101;SDS011;52034;51.926;6.320;2024-02-21T17:06:40;16.45;;;9.60;;
58101;SDS011;52034;51.926;6.320;2024-02-21T17:07:42;14.27;;;8.63;;
58101;SDS011;52034;51.926;6.320;2024-02-21T17:08:45;15.35;;;8.00;;
58101;SDS011;52034;51.926;6.320;2024-02-21T17:09:48;14.82;;;7.85;;
58101;SDS011;52034;51.926;6.320;2024-02-21T17:11:51;12.88;;;8.18;;
58101;SDS011;52034;51.926;6.320;2024-02-21T17:12:54;14.98;;;8.00;;
58101;SDS011;52034;51.926;6.320;2024-02-21T17:13:56;17.60;;;8.63;;
58101;SDS011;52034;51.926;6.320;2024-02-21T17:14:58;15.23;;;8.10;;
58101;SDS011;52034;51.926;6.320;2024-02-21T17:16:00;13.63;;;8.23;;
58101;SDS011;52034;51.926;6.320;2024-02-21T17:17:02;10.80;;;7.53;;
58101;SDS011;52034;51.926;6.320;2024-02-21T17:18:03;13.63;;;7.78;;
58101;SDS011;52034;51.926;6.320;2024-02-21T17:19:05;15.63;;;7.50;;
58101;SDS011;52034;51.926;6.320;2024-02-21T17:20:07;12.95;;;7.68;;
58101;SDS011;52034;51.926;6.320;2024-02-21T17:21:10;10.82;;;6.60;;
58101;SDS011;52034;51.926;6.320;2024-02-21T17:22:13;11.93;;;7.32;;
58101;SDS011;52034;51.926;6.320;2024-02-21T17:24:17;12.07;;;6.80;;
58101;SDS011;52034;51.926;6.320;2024-02-21T17:25:18;12.23;;;6.85;;
58101;SDS011;52034;51.926;6.320;2024-02-21T17:26:20;12.82;;;6.95;;
58101;SDS011;52034;51.926;6.320;2024-02-21T17:27:25;10.73;;;6.53;;
58101;SDS011;52034;51.926;6.320;2024-02-21T17:29:30;12.07;;;7.03;;
58101;SDS011;52034;51.926;6.320;2024-02-21T17:30:31;11.30;;;6.18;;
58101;SDS011;52034;51.926;6.320;2024-02-21T17:31:37;10.63;;;6.22;;
58101;SDS011;52034;51.926;6.320;2024-02-21T17:32:39;14.30;;;6.68;;
58101;SDS011;52034;51.926;6.320;2024-02-21T17:34:42;9.88;;;6.15;;
58101;SDS011;52034;51.926;6.320;2024-02-21T17:35:44;10.00;;;6.32;;
58101;SDS011;52034;51.926;6.320;2024-02-21T17:36:49;11.13;;;6.28;;
58101;SDS011;52034;51.926;6.320;2024-02-21T17:37:51;10.07;;;6.63;;
58101;SDS011;52034;51.926;6.320;2024-02-21T17:38:54;9.65;;;6.22;;
58101;SDS011;52034;51.926;6.320;2024-02-21T17:39:56;11.57;;;6.53;;
58101;SDS011;52034;51.926;6.320;2024-02-21T17:41:59;14.23;;;6.57;;
58101;SDS011;52034;51.926;6.320;2024-02-21T17:43:01;13.27;;;6.47;;
58101;SDS011;52034;51.926;6.320;2024-02-21T17:44:03;12.60;;;7.03;;
58101;SDS011;52034;51.926;6.320;2024-02-21T17:45:05;10.27;;;6.50;;
58101;SDS011;52034;51.926;6.320;2024-02-21T17:46:08;9.20;;;6.35;;
58101;SDS011;52034;51.926;6.320;2024-02-21T17:48:11;10.97;;;7.23;;
58101;SDS011;52034;51.926;6.320;2024-02-21T17:49:13;11.60;;;7.20;;
58101;SDS011;52034;51.926;6.320;2024-02-21T17:50:17;12.98;;;6.70;;
58101;SDS011;52034;51.926;6.320;2024-02-21T17:51:20;10.52;;;6.25;;
58101;SDS011;52034;51.926;6.320;2024-02-21T17:53:23;10.52;;;6.65;;
58101;SDS011;52034;51.926;6.320;2024-02-21T17:54:26;13.50;;;6.88;;
58101;SDS011;52034;51.926;6.320;2024-02-21T17:55:28;11.10;;;7.10;;
58101;SDS011;52034;51.926;6.320;2024-02-21T17:56:30;14.35;;;7.47;;
58101;SDS011;52034;51.926;6.320;2024-02-21T17:58:34;11.40;;;6.80;;
58101;SDS011;52034;51.926;6.320;2024-02-21T17:59:40;12.20;;;7.10;;
58101;SDS011;52034;51.926;6.320;2024-02-21T18:00:42;16.20;;;7.20;;
58101;SDS011;52034;51.926;6.320;2024-02-21T18:01:46;12.48;;;7.15;;
58101;SDS011;52034;51.926;6.320;2024-02-21T18:02:48;14.23;;;7.00;;
58101;SDS011;52034;51.926;6.320;2024-02-21T18:03:50;10.85;;;6.72;;
58101;SDS011;52034;51.926;6.320;2024-02-21T18:04:55;11.80;;;6.95;;
58101;SDS011;52034;51.926;6.320;2024-02-21T18:06:59;10.45;;;7.03;;
58101;SDS011;52034;51.926;6.320;2024-02-21T18:08:01;12.43;;;7.13;;
58101;SDS011;52034;51.926;6.320;2024-02-21T18:09:03;13.93;;;7.00;;
58101;SDS011;52034;51.926;6.320;2024-02-21T18:10:05;11.30;;;7.50;;
58101;SDS011;52034;51.926;6.320;2024-02-21T18:11:08;10.60;;;7.25;;
58101;SDS011;52034;51.926;6.320;2024-02-21T18:12:10;11.48;;;7.13;;
58101;SDS011;52034;51.926;6.320;2024-02-21T18:13:12;13.88;;;7.50;;
58101;SDS011;52034;51.926;6.320;2024-02-21T18:15:15;14.13;;;7.13;;
58101;SDS011;52034;51.926;6.320;2024-02-21T18:17:19;12.40;;;7.13;;
58101;SDS011;52034;51.926;6.320;2024-02-21T18:18:20;11.00;;;7.05;;
58101;SDS011;52034;51.926;6.320;2024-02-21T18:20:24;12.65;;;7.22;;
58101;SDS011;52034;51.926;6.320;2024-02-21T18:21:26;11.88;;;7.10;;
58101;SDS011;52034;51.926;6.320;2024-02-21T18:22:29;13.63;;;7.47;;
58101;SDS011;52034;51.926;6.320;2024-02-21T18:23:30;11.70;;;7.47;;
58101;SDS011;52034;51.926;6.320;2024-02-21T18:25:37;13.23;;;7.15;;
58101;SDS011;52034;51.926;6.320;2024-02-21T18:27:40;11.20;;;7.00;;
58101;SDS011;52034;51.926;6.320;2024-02-21T18:28:42;11.80;;;6.97;;
58101;SDS011;52034;51.926;6.320;2024-02-21T18:29:44;13.50;;;7.47;;
58101;SDS011;52034;51.926;6.320;2024-02-21T18:30:49;10.90;;;7.63;;
58101;SDS011;52034;51.926;6.320;2024-02-21T18:31:50;12.90;;;7.22;;
58101;SDS011;52034;51.926;6.320;2024-02-21T18:32:52;10.93;;;7.55;;
58101;SDS011;52034;51.926;6.320;2024-02-21T18:33:54;12.00;;;7.50;;
58101;SDS011;52034;51.926;6.320;2024-02-21T18:34:59;12.10;;;7.50;;
58101;SDS011;52034;51.926;6.320;2024-02-21T18:36:02;12.52;;;7.70;;
58101;SDS011;52034;51.926;6.320;2024-02-21T18:37:04;12.35;;;7.40;;
58101;SDS011;52034;51.926;6.320;2024-02-21T18:38:06;16.23;;;8.07;;
58101;SDS011;52034;51.926;6.320;2024-02-21T18:39:08;12.55;;;7.18;;
58101;SDS011;52034;51.926;6.320;2024-02-21T18:40:11;9.80;;;6.93;;
58101;SDS011;52034;51.926;6.320;2024-02-21T18:41:13;11.95;;;7.22;;
58101;SDS011;52034;51.926;6.320;2024-02-21T18:43:16;16.90;;;7.60;;
58101;SDS011;52034;51.926;6.320;2024-02-21T18:44:18;12.57;;;7.40;;
58101;SDS011;52034;51.926;6.320;2024-02-21T18:45:20;11.38;;;7.30;;
58101;SDS011;52034;51.926;6.320;2024-02-21T18:47:24;10.30;;;7.28;;
58101;SDS011;52034;51.926;6.320;2024-02-21T18:49:27;12.00;;;7.22;;
58101;SDS011;52034;51.926;6.320;2024-02-21T18:51:31;11.23;;;7.80;;
58101;SDS011;52034;51.926;6.320;2024-02-21T18:52:33;15.63;;;7.55;;
58101;SDS011;52034;51.926;6.320;2024-02-21T18:53:34;11.93;;;7.10;;
58101;SDS011;52034;51.926;6.320;2024-02-21T18:54:40;16.45;;;8.82;;
58101;SDS011;52034;51.926;6.320;2024-02-21T18:55:45;14.45;;;7.68;;
58101;SDS011;52034;51.926;6.320;2024-02-21T18:56:47;12.43;;;7.60;;
58101;SDS011;52034;51.926;6.320;2024-02-21T18:57:49;9.48;;;7.20;;
58101;SDS011;52034;51.926;6.320;2024-02-21T18:58:51;13.27;;;7.75;;
58101;SDS011;52034;51.926;6.320;2024-02-21T18:59:56;11.13;;;7.80;;
58101;SDS011;52034;51.926;6.320;2024-02-21T19:02:00;12.30;;;7.78;;
58101;SDS011;52034;51.926;6.320;2024-02-21T19:03:02;15.30;;;7.43;;
58101;SDS011;52034;51.926;6.320;2024-02-21T19:04:04;12.45;;;7.78;;
58101;SDS011;52034;51.926;6.320;2024-02-21T19:05:05;12.43;;;7.47;;
58101;SDS011;52034;51.926;6.320;2024-02-21T19:06:08;14.05;;;8.00;;
58101;SDS011;52034;51.926;6.320;2024-02-21T19:07:09;11.43;;;7.80;;
58101;SDS011;52034;51.926;6.320;2024-02-21T19:08:11;13.70;;;7.55;;
58101;SDS011;52034;51.926;6.320;2024-02-21T19:09:13;14.55;;;7.90;;
58101;SDS011;52034;51.926;6.320;2024-02-21T19:10:15;16.77;;;8.40;;
58101;SDS011;52034;51.926;6.320;2024-02-21T19:11:17;12.88;;;8.20;;
58101;SDS011;52034;51.926;6.320;2024-02-21T19:12:18;12.10;;;8.13;;
58101;SDS011;52034;51.926;6.320;2024-02-21T19:13:21;12.43;;;7.97;;
58101;SDS011;52034;51.926;6.320;2024-02-21T19:15:24;12.43;;;8.50;;
58101;SDS011;52034;51.926;6.320;2024-02-21T19:16:26;12.65;;;8.52;;
58101;SDS011;52034;51.926;6.320;2024-02-21T19:17:30;13.90;;;8.05;;
58101;SDS011;52034;51.926;6.320;2024-02-21T19:18:32;12.38;;;8.07;;
58101;SDS011;52034;51.926;6.320;2024-02-21T19:20:38;14.10;;;8.00;;
58101;SDS011;52034;51.926;6.320;2024-02-21T19:21:39;12.38;;;7.75;;
58101;SDS011;52034;51.926;6.320;2024-02-21T19:22:43;12.88;;;8.35;;
58101;SDS011;52034;51.926;6.320;2024-02-21T19:23:48;13.68;;;8.10;;
58101;SDS011;52034;51.926;6.320;2024-02-21T19:25:52;16.00;;;7.95;;
58101;SDS011;52034;51.926;6.320;2024-02-21T19:26:54;14.40;;;8.25;;
58101;SDS011;52034;51.926;6.320;2024-02-21T19:27:56;13.25;;;8.20;;
58101;SDS011;52034;51.926;6.320;2024-02-21T19:28:58;13.93;;;8.20;;
58101;SDS011;52034;51.926;6.320;2024-02-21T19:31:01;13.23;;;8.20;;
58101;SDS011;52034;51.926;6.320;2024-02-21T19:32:04;13.02;;;8.45;;
58101;SDS011;52034;51.926;6.320;2024-02-21T19:33:06;12.40;;;9.05;;
58101;SDS011;52034;51.926;6.320;2024-02-21T19:34:08;12.82;;;8.10;;
58101;SDS011;52034;51.926;6.320;2024-02-21T19:35:12;13.07;;;7.85;;
58101;SDS011;52034;51.926;6.320;2024-02-21T19:36:14;13.88;;;8.57;;
58101;SDS011;52034;51.926;6.320;2024-02-21T19:38:17;11.75;;;8.23;;
58101;SDS011;52034;51.926;6.320;2024-02-21T19:39:19;13.98;;;8.85;;
58101;SDS011;52034;51.926;6.320;2024-02-21T19:41:24;15.73;;;8.90;;
58101;SDS011;52034;51.926;6.320;2024-02-21T19:43:27;12.55;;;8.88;;
58101;SDS011;52034;51.926;6.320;2024-02-21T19:46:35;11.18;;;8.10;;
58101;SDS011;52034;51.926;6.320;2024-02-21T19:47:37;11.32;;;8.75;;
58101;SDS011;52034;51.926;6.320;2024-02-21T19:49:42;13.65;;;9.00;;
58101;SDS011;52034;51.926;6.320;2024-02-21T19:51:46;11.95;;;8.52;;
58101;SDS011;52034;51.926;6.320;2024-02-21T19:52:48;12.13;;;8.52;;
58101;SDS011;52034;51.926;6.320;2024-02-21T19:53:50;17.35;;;9.48;;
58101;SDS011;52034;51.926;6.320;2024-02-21T19:55:12;16.08;;;9.52;;
58101;SDS011;52034;51.926;6.320;2024-02-21T19:57:17;12.27;;;8.52;;
58101;SDS011;52034;51.926;6.320;2024-02-21T19:58:19;14.18;;;8.75;;
58101;SDS011;52034;51.926;6.320;2024-02-21T19:59:20;13.38;;;8.82;;
58101;SDS011;52034;51.926;6.320;2024-02-21T20:00:23;14.65;;;9.05;;
58101;SDS011;52034;51.926;6.320;2024-02-21T20:01:25;11.18;;;8.48;;
58101;SDS011;52034;51.926;6.320;2024-02-21T20:02:27;14.60;;;8.98;;
58101;SDS011;52034;51.926;6.320;2024-02-21T20:04:31;10.50;;;8.32;;
58101;SDS011;52034;51.926;6.320;2024-02-21T20:05:33;14.27;;;9.07;;
58101;SDS011;52034;51.926;6.320;2024-02-21T20:06:35;13.60;;;9.27;;
58101;SDS011;52034;51.926;6.320;2024-02-21T20:08:38;11.57;;;8.90;;
58101;SDS011;52034;51.926;6.320;2024-02-21T20:09:41;12.48;;;9.05;;
58101;SDS011;52034;51.926;6.320;2024-02-21T20:10:43;12.88;;;9.50;;
58101;SDS011;52034;51.926;6.320;2024-02-21T20:11:44;10.27;;;8.73;;
58101;SDS011;52034;51.926;6.320;2024-02-21T20:12:47;11.23;;;9.10;;
58101;SDS011;52034;51.926;6.320;2024-02-21T20:13:52;13.07;;;9.07;;
58101;SDS011;52034;51.926;6.320;2024-02-21T20:14:53;12.50;;;8.60;;
58101;SDS011;52034;51.926;6.320;2024-02-21T20:15:56;13.85;;;8.48;;
58101;SDS011;52034;51.926;6.320;2024-02-21T20:17:59;12.00;;;9.23;;
58101;SDS011;52034;51.926;6.320;2024-02-21T20:19:02;12.55;;;8.57;;
58101;SDS011;52034;51.926;6.320;2024-02-21T20:20:04;13.45;;;9.60;;
58101;SDS011;52034;51.926;6.320;2024-02-21T20:21:07;15.35;;;9.45;;
58101;SDS011;52034;51.926;6.320;2024-02-21T20:22:10;11.85;;;8.55;;
58101;SDS011;52034;51.926;6.320;2024-02-21T20:23:12;10.88;;;8.63;;
58101;SDS011;52034;51.926;6.320;2024-02-21T20:24:16;12.75;;;9.35;;
58101;SDS011;52034;51.926;6.320;2024-02-21T20:25:35;12.35;;;9.20;;
58101;SDS011;52034;51.926;6.320;2024-02-21T20:27:45;11.77;;;8.88;;
58101;SDS011;52034;51.926;6.320;2024-02-21T20:28:48;11.02;;;9.32;;
58101;SDS011;52034;51.926;6.320;2024-02-21T20:29:51;10.30;;;9.15;;
58101;SDS011;52034;51.926;6.320;2024-02-21T20:31:54;11.75;;;9.50;;
58101;SDS011;52034;51.926;6.320;2024-02-21T20:32:58;12.23;;;8.77;;
58101;SDS011;52034;51.926;6.320;2024-02-21T20:35:02;14.65;;;9.63;;
58101;SDS011;52034;51.926;6.320;2024-02-21T20:36:05;11.05;;;8.90;;
58101;SDS011;52034;51.926;6.320;2024-02-21T20:37:07;13.02;;;9.45;;
58101;SDS011;52034;51.926;6.320;2024-02-21T20:38:12;13.15;;;9.52;;
58101;SDS011;52034;51.926;6.320;2024-02-21T20:40:16;16.02;;;9.73;;
58101;SDS011;52034;51.926;6.320;2024-02-21T20:41:18;13.18;;;10.00;;
58101;SDS011;52034;51.926;6.320;2024-02-21T20:42:20;12.15;;;9.20;;
58101;SDS011;52034;51.926;6.320;2024-02-21T20:43:25;12.02;;;9.32;;
58101;SDS011;52034;51.926;6.320;2024-02-21T20:45:28;12.30;;;9.95;;
58101;SDS011;52034;51.926;6.320;2024-02-21T20:47:32;10.38;;;9.25;;